Time;durP1;ratioP1;P1;durP2;ratioP2;P2;SDS_P1;SDS_P2;PMS_P1;PMS_P2;Temp;Humidity;BMP_temperature;BMP_pressure;BME280_temperature;BME280_humidity;BME280_pressure;Samples;Min_cycle;Max_cycle;Signal;HPM_P1;HPM_P2
2023/04/23 00:01:57;;;;;;;0.10;0.10;;;14.40;99.90;;;;;;5056481;28;20215;-83
2023/04/23 00:04:24;;;;;;;0.10;0.10;;;14.40;99.90;;;;;;5060846;28;20571;-82
2023/04/23 00:06:51;;;;;;;0.10;0.10;;;14.40;99.90;;;;;;5062408;28;20204;-83
2023/04/23 00:09:17;;;;;;;0.10;0.10;;;14.40;99.90;;;;;;5061483;28;20287;-82
2023/04/23 00:11:43;;;;;;;0.10;0.10;;;14.40;99.90;;;;;;5063258;28;20238;-83
2023/04/23 00:14:10;;;;;;;0.10;0.10;;;14.40;99.90;;;;;;5061449;28;20196;-83
2023/04/23 00:16:36;;;;;;;0.10;0.10;;;14.40;99.90;;;;;;5063028;28;20208;-83
2023/04/23 00:19:02;;;;;;;0.10;0.10;;;14.30;99.90;;;;;;5059379;28;20704;-84
2023/04/23 00:21:27;;;;;;;0.10;0.10;;;14.40;99.90;;;;;;5062646;28;20192;-83
2023/04/23 00:23:53;;;;;;;0.10;0.10;;;14.40;99.90;;;;;;5061958;28;20618;-84
2023/04/23 00:26:19;;;;;;;0.10;0.10;;;14.40;99.90;;;;;;5062093;28;20326;-83
2023/04/23 00:28:45;;;;;;;0.10;0.10;;;14.40;99.90;;;;;;5061111;28;20230;-86
2023/04/23 00:31:10;;;;;;;0.10;0.10;;;14.40;99.90;;;;;;5061582;28;20196;-83
2023/04/23 00:33:36;;;;;;;0.10;0.10;;;14.40;99.90;;;;;;5058084;28;20479;-82
2023/04/23 00:36:01;;;;;;;0.10;0.10;;;14.40;99.90;;;;;;5063929;28;20203;-83
2023/04/23 00:38:27;;;;;;;0.10;0.10;;;14.40;99.90;;;;;;5060959;28;20594;-84
2023/04/23 00:40:52;;;;;;;0.10;0.10;;;14.30;99.90;;;;;;5059809;28;20605;-84
2023/04/23 00:43:19;;;;;;;0.10;0.10;;;14.20;99.90;;;;;;5059735;28;20188;-82
2023/04/23 00:45:45;;;;;;;0.10;0.10;;;14.20;99.90;;;;;;5060554;28;20205;-83
2023/04/23 00:48:11;;;;;;;0.10;0.10;;;14.20;99.90;;;;;;5060116;28;20192;-83
2023/04/23 00:50:36;;;;;;;0.10;0.10;;;14.10;99.90;;;;;;5060240;28;20275;-83
2023/04/23 00:53:02;;;;;;;0.10;0.10;;;14.10;99.90;;;;;;5058994;28;20535;-82
2023/04/23 00:55:28;;;;;;;0.10;0.10;;;14.10;99.90;;;;;;5064101;28;20252;-82
2023/04/23 00:57:54;;;;;;;0.10;0.10;;;14.10;99.90;;;;;;5060531;28;20307;-82
2023/04/23 01:00:20;;;;;;;0.10;0.10;;;14.10;99.90;;;;;;5059879;28;20665;-83
2023/04/23 01:02:48;;;;;;;0.10;0.10;;;14.10;99.90;;;;;;5067415;28;20241;-82
2023/04/23 01:05:16;;;;;;;0.10;0.10;;;14.10;99.90;;;;;;5063613;28;20549;-81
2023/04/23 01:07:44;;;;;;;0.10;0.10;;;14.10;99.90;;;;;;5067354;28;20211;-83
2023/04/23 01:10:11;;;;;;;0.10;0.10;;;14.10;99.90;;;;;;5061923;28;20179;-82
2023/04/23 01:12:36;;;;;;;0.10;0.10;;;14.10;99.90;;;;;;5062194;28;20212;-82
2023/04/23 01:15:03;;;;;;;0.10;0.10;;;13.90;99.90;;;;;;5068866;28;20650;-82
2023/04/23 01:17:28;;;;;;;0.10;0.10;;;13.90;99.90;;;;;;5062400;28;20660;-83
2023/04/23 01:19:54;;;;;;;0.10;0.10;;;13.60;99.90;;;;;;5064073;28;20207;-82
2023/04/23 01:22:19;;;;;;;0.10;0.10;;;13.50;99.90;;;;;;5065933;28;20222;-82
2023/04/23 01:24:46;;;;;;;0.10;0.10;;;13.60;99.90;;;;;;5067017;28;20249;-82
2023/04/23 01:27:12;;;;;;;0.10;0.10;;;13.70;99.90;;;;;;5064571;28;20258;-82
2023/04/23 01:29:38;;;;;;;0.10;0.10;;;13.80;99.90;;;;;;5064770;28;20188;-82
2023/04/23 01:32:05;;;;;;;0.10;0.10;;;13.90;99.90;;;;;;5068196;28;20193;-82
2023/04/23 01:34:31;;;;;;;0.10;0.10;;;13.80;99.90;;;;;;5068232;28;20208;-83
2023/04/23 01:36:58;;;;;;;0.10;0.10;;;13.80;99.90;;;;;;5068966;28;20214;-82
2023/04/23 01:39:24;;;;;;;0.10;0.10;;;13.70;99.90;;;;;;5063385;28;20196;-82
2023/04/23 01:41:49;;;;;;;0.10;0.10;;;13.70;99.90;;;;;;5064661;28;20230;-82
2023/04/23 01:44:15;;;;;;;0.10;0.10;;;13.90;99.90;;;;;;5063342;28;20305;-82
2023/04/23 01:46:41;;;;;;;0.10;0.10;;;13.90;99.90;;;;;;5064558;28;20212;-83
2023/04/23 01:49:07;;;;;;;0.10;0.10;;;13.90;99.90;;;;;;5068135;28;20180;-82
2023/04/23 01:51:33;;;;;;;0.10;0.10;;;14.00;99.90;;;;;;5066411;28;20275;-82
2023/04/23 01:53:59;;;;;;;0.10;0.10;;;14.00;99.90;;;;;;5066359;28;20375;-82
2023/04/23 01:56:26;;;;;;;0.10;0.10;;;14.00;99.90;;;;;;5068916;28;20225;-82
2023/04/23 01:58:52;;;;;;;0.10;0.10;;;13.90;99.90;;;;;;5065501;28;20763;-82
2023/04/23 02:01:17;;;;;;;0.10;0.10;;;13.80;99.90;;;;;;5057412;28;20318;-82
2023/04/23 02:03:44;;;;;;;0.10;0.10;;;13.80;99.90;;;;;;5065033;28;20212;-83
2023/04/23 02:06:10;;;;;;;0.10;0.10;;;13.80;99.90;;;;;;5061708;28;20207;-83
2023/04/23 02:08:36;;;;;;;0.10;0.10;;;13.80;99.90;;;;;;5066434;28;20192;-83
2023/04/23 02:11:01;;;;;;;0.10;0.10;;;13.80;99.90;;;;;;5066391;28;20240;-81
2023/04/23 02:13:27;;;;;;;0.10;0.10;;;13.80;99.90;;;;;;5066161;28;20214;-83
2023/04/23 02:15:52;;;;;;;0.10;0.10;;;13.80;99.90;;;;;;5063104;28;20209;-82
2023/04/23 02:18:18;;;;;;;0.10;0.10;;;13.80;99.90;;;;;;5064344;28;20192;-83
2023/04/23 02:20:43;;;;;;;0.10;0.10;;;13.80;99.90;;;;;;5063963;28;20195;-82
2023/04/23 02:23:09;;;;;;;0.10;0.10;;;13.70;99.90;;;;;;5062752;28;20237;-82
2023/04/23 02:25:37;;;;;;;0.10;0.10;;;13.70;99.90;;;;;;5059789;28;20195;-82
2023/04/23 02:28:05;;;;;;;0.10;0.10;;;13.70;99.90;;;;;;5065595;28;20176;-81
2023/04/23 02:30:32;;;;;;;0.10;0.10;;;13.70;99.90;;;;;;5065340;28;20629;-82
2023/04/23 02:32:57;;;;;;;0.10;0.10;;;13.80;99.90;;;;;;5064406;28;20186;-82
2023/04/23 02:35:23;;;;;;;0.10;0.10;;;13.70;99.90;;;;;;5061052;28;20183;-82
2023/04/23 02:37:50;;;;;;;0.10;0.10;;;13.80;99.90;;;;;;5061893;28;20187;-82
2023/04/23 02:40:15;;;;;;;0.10;0.10;;;13.70;99.90;;;;;;5059761;28;20244;-82
2023/04/23 02:42:41;;;;;;;0.10;0.10;;;13.80;99.90;;;;;;5060262;28;20212;-82
2023/04/23 02:45:07;;;;;;;0.10;0.10;;;13.80;99.90;;;;;;5064741;28;20197;-82
2023/04/23 02:47:33;;;;;;;0.10;0.10;;;13.80;99.90;;;;;;5065137;28;20215;-82
2023/04/23 02:50:01;;;;;;;0.10;0.10;;;13.80;99.90;;;;;;5061729;28;20197;-82
2023/04/23 02:52:27;;;;;;;0.10;0.10;;;13.70;99.90;;;;;;5063887;28;21034;-82
2023/04/23 02:54:52;;;;;;;0.10;0.10;;;13.70;99.90;;;;;;5064512;28;20274;-83
2023/04/23 02:57:18;;;;;;;0.10;0.10;;;13.60;99.90;;;;;;5059937;28;20250;-82
2023/04/23 02:59:44;;;;;;;0.10;0.10;;;13.50;99.90;;;;;;5059795;28;20203;-82
2023/04/23 03:02:09;;;;;;;0.10;0.10;;;13.50;99.90;;;;;;5066952;28;20219;-82
2023/04/23 03:04:35;;;;;;;0.10;0.10;;;13.50;99.90;;;;;;5065914;28;20184;-82
2023/04/23 03:07:00;;;;;;;0.10;0.10;;;13.50;99.90;;;;;;5063356;28;20210;-82
2023/04/23 03:09:26;;;;;;;0.10;0.10;;;13.50;99.90;;;;;;5060889;28;20190;-82
2023/04/23 03:11:51;;;;;;;0.10;0.10;;;13.60;99.90;;;;;;5065395;28;20187;-83
2023/04/23 03:14:17;;;;;;;0.10;0.10;;;13.60;99.90;;;;;;5063057;28;20186;-81
2023/04/23 03:16:43;;;;;;;0.10;0.10;;;13.50;99.90;;;;;;5061123;28;20283;-82
2023/04/23 03:19:08;;;;;;;0.10;0.10;;;13.50;99.90;;;;;;5062657;28;20196;-83
2023/04/23 03:21:34;;;;;;;0.10;0.10;;;13.60;99.90;;;;;;5064809;28;20752;-82
2023/04/23 03:24:00;;;;;;;0.10;0.10;;;13.60;99.90;;;;;;5063920;28;20304;-82
2023/04/23 03:26:25;;;;;;;0.10;0.10;;;13.50;99.90;;;;;;5059768;28;20228;-82
2023/04/23 03:28:51;;;;;;;0.10;0.10;;;13.50;99.90;;;;;;5067405;28;20192;-82
2023/04/23 03:31:16;;;;;;;0.10;0.10;;;13.50;99.90;;;;;;5063469;28;20178;-82
2023/04/23 03:33:42;;;;;;;0.10;0.10;;;13.40;99.90;;;;;;5063125;28;20180;-82
2023/04/23 03:36:07;;;;;;;0.10;0.10;;;13.50;99.90;;;;;;5062512;28;20558;-82
2023/04/23 03:38:33;;;;;;;0.10;0.10;;;13.50;99.90;;;;;;5067750;28;20216;-82
2023/04/23 03:40:58;;;;;;;0.10;0.10;;;13.40;99.90;;;;;;5064043;28;20210;-82
2023/04/23 03:43:24;;;;;;;0.10;0.10;;;13.40;99.90;;;;;;5066897;28;20246;-82
2023/04/23 03:45:50;;;;;;;0.10;0.10;;;13.40;99.90;;;;;;5063541;28;20209;-81
2023/04/23 03:48:15;;;;;;;0.10;0.10;;;13.40;99.90;;;;;;5062758;28;20191;-82
2023/04/23 03:50:41;;;;;;;0.10;0.10;;;13.40;99.90;;;;;;5063630;28;20202;-82
2023/04/23 03:53:08;;;;;;;0.10;0.10;;;13.40;99.90;;;;;;5065020;28;20278;-83
2023/04/23 03:55:34;;;;;;;0.10;0.10;;;13.30;99.90;;;;;;5065554;28;20263;-82
2023/04/23 03:58:02;;;;;;;0.10;0.10;;;13.30;99.90;;;;;;5063683;28;20194;-82
2023/04/23 04:00:27;;;;;;;0.10;0.10;;;13.30;99.90;;;;;;5064524;28;20449;-82
2023/04/23 04:02:53;;;;;;;0.10;0.10;;;13.20;99.90;;;;;;5064523;28;20405;-82
2023/04/23 04:05:18;;;;;;;0.10;0.10;;;13.10;99.90;;;;;;5065436;28;20283;-82
2023/04/23 04:07:44;;;;;;;0.10;0.10;;;13.10;99.90;;;;;;5061452;28;20234;-82
2023/04/23 04:10:10;;;;;;;0.10;0.10;;;13.10;99.90;;;;;;5061063;28;20655;-82
2023/04/23 04:12:36;;;;;;;0.10;0.10;;;13.10;99.90;;;;;;5061839;28;20536;-82
2023/04/23 04:15:02;;;;;;;0.10;0.10;;;13.10;99.90;;;;;;5064699;28;20193;-82
2023/04/23 04:17:28;;;;;;;0.10;0.10;;;13.10;99.90;;;;;;5064936;28;20208;-82
2023/04/23 04:19:53;;;;;;;0.10;0.10;;;13.10;99.90;;;;;;5061236;28;20659;-82
2023/04/23 04:22:19;;;;;;;0.10;0.10;;;13.20;99.90;;;;;;5059673;28;20248;-82
2023/04/23 04:24:46;;;;;;;0.10;0.10;;;13.20;99.90;;;;;;5063046;28;20194;-81
2023/04/23 04:27:12;;;;;;;0.10;0.10;;;13.20;99.90;;;;;;5066324;28;20251;-82
2023/04/23 04:29:40;;;;;;;0.10;0.10;;;13.00;99.90;;;;;;5067655;28;20202;-82
2023/04/23 04:32:07;;;;;;;0.10;0.10;;;12.80;99.90;;;;;;5065470;28;20218;-82
2023/04/23 04:34:34;;;;;;;0.10;0.10;;;12.70;99.90;;;;;;5070452;28;20194;-82
2023/04/23 04:37:00;;;;;;;0.10;0.10;;;12.70;99.90;;;;;;5067484;28;20217;-82
2023/04/23 04:39:27;;;;;;;0.10;0.10;;;12.70;99.90;;;;;;5064314;28;20719;-81
2023/04/23 04:41:53;;;;;;;0.10;0.10;;;12.80;99.90;;;;;;5069070;28;20237;-82
2023/04/23 04:44:18;;;;;;;0.10;0.10;;;12.90;99.90;;;;;;5063576;28;20189;-82
2023/04/23 04:46:44;;;;;;;0.10;0.10;;;13.10;99.90;;;;;;5071844;28;20203;-82
2023/04/23 04:49:10;;;;;;;0.10;0.10;;;13.10;99.90;;;;;;5065757;28;20192;-82
2023/04/23 04:51:37;;;;;;;0.10;0.10;;;13.10;99.90;;;;;;5066903;28;20272;-82
2023/04/23 04:54:03;;;;;;;0.10;0.10;;;13.20;99.90;;;;;;5062848;28;20187;-82
2023/04/23 04:56:29;;;;;;;0.10;0.10;;;13.30;99.90;;;;;;5072031;28;20199;-81
2023/04/23 04:58:54;;;;;;;0.10;0.10;;;13.30;99.90;;;;;;5072443;28;20175;-82
2023/04/23 05:01:21;;;;;;;0.10;0.10;;;13.30;99.90;;;;;;5071251;28;20187;-82
2023/04/23 05:03:47;;;;;;;0.10;0.10;;;13.30;99.90;;;;;;5068554;28;20238;-81
2023/04/23 05:06:13;;;;;;;0.10;0.10;;;13.20;99.90;;;;;;5063245;28;20239;-81
2023/04/23 05:08:38;;;;;;;0.10;0.10;;;13.20;99.90;;;;;;5069080;28;20195;-81
2023/04/23 05:11:04;;;;;;;0.10;0.10;;;13.10;99.90;;;;;;5068318;28;20183;-81
2023/04/23 05:13:29;;;;;;;0.10;0.10;;;13.10;99.90;;;;;;5067828;28;20190;-81
2023/04/23 05:15:55;;;;;;;0.10;0.10;;;13.00;99.90;;;;;;5066982;28;21152;-82
2023/04/23 05:18:20;;;;;;;0.10;0.10;;;13.00;99.90;;;;;;5065789;28;20721;-81
2023/04/23 05:20:46;;;;;;;0.10;0.10;;;13.00;99.90;;;;;;5070294;28;20188;-82
2023/04/23 05:23:12;;;;;;;0.10;0.10;;;12.90;99.90;;;;;;5070842;28;20271;-82
2023/04/23 05:25:37;;;;;;;0.10;0.10;;;12.80;99.90;;;;;;5069770;28;20174;-81
2023/04/23 05:28:03;;;;;;;0.10;0.10;;;12.80;99.90;;;;;;5068402;28;20208;-83
2023/04/23 05:30:29;;;;;;;0.10;0.10;;;12.90;99.90;;;;;;5068609;28;20309;-82
2023/04/23 05:32:54;;;;;;;0.10;0.10;;;12.80;99.90;;;;;;5066074;28;20250;-82
2023/04/23 05:35:20;;;;;;;0.10;0.10;;;12.90;99.90;;;;;;5066944;28;20201;-82
2023/04/23 05:37:45;;;;;;;0.10;0.10;;;12.90;99.90;;;;;;5061196;28;20214;-81
2023/04/23 05:40:12;;;;;;;0.10;0.10;;;12.90;99.90;;;;;;5060800;28;20184;-82
2023/04/23 05:42:37;;;;;;;0.10;0.10;;;12.90;99.90;;;;;;5064827;28;20232;-82
2023/04/23 05:45:03;;;;;;;0.10;0.10;;;13.10;99.90;;;;;;5065296;28;20209;-82
2023/04/23 05:47:30;;;;;;;0.10;0.10;;;13.10;99.90;;;;;;5069060;28;20294;-82
2023/04/23 05:49:58;;;;;;;0.10;0.10;;;13.10;99.90;;;;;;5066847;28;20206;-82
2023/04/23 05:52:24;;;;;;;0.10;0.10;;;13.20;99.90;;;;;;5067778;28;20187;-82
2023/04/23 05:54:50;;;;;;;0.10;0.10;;;13.30;99.90;;;;;;5066145;28;20220;-82
2023/04/23 05:57:16;;;;;;;0.10;0.10;;;13.40;99.90;;;;;;5066042;28;20220;-81
2023/04/23 05:59:41;;;;;;;0.10;0.10;;;13.50;99.90;;;;;;5063386;28;20626;-83
2023/04/23 06:02:09;;;;;;;0.10;0.10;;;13.60;99.90;;;;;;5067990;28;20215;-83
2023/04/23 06:04:35;;;;;;;0.10;0.10;;;13.70;99.90;;;;;;5064444;28;20740;-82
2023/04/23 06:07:00;;;;;;;0.10;0.10;;;13.80;99.90;;;;;;5064955;28;20206;-82
2023/04/23 06:09:26;;;;;;;0.10;0.10;;;14.00;99.90;;;;;;5059563;28;20191;-83
2023/04/23 06:11:52;;;;;;;0.10;0.10;;;14.10;99.90;;;;;;5065069;28;20187;-82
2023/04/23 06:14:17;;;;;;;0.10;0.10;;;14.20;99.90;;;;;;5066408;28;20188;-83
2023/04/23 06:16:43;;;;;;;0.10;0.10;;;14.30;99.90;;;;;;5067195;28;20689;-83
2023/04/23 06:19:09;;;;;;;0.10;0.10;;;14.40;99.90;;;;;;5066830;28;20237;-81
2023/04/23 06:21:34;;;;;;;0.10;0.10;;;14.50;99.90;;;;;;5067859;28;20630;-84
2023/04/23 06:24:00;;;;;;;0.10;0.10;;;14.50;99.90;;;;;;5076583;28;20663;-83
2023/04/23 06:26:25;;;;;;;0.10;0.10;;;14.70;99.90;;;;;;5067151;28;20291;-82
2023/04/23 06:28:51;;;;;;;0.10;0.10;;;14.70;99.90;;;;;;5071597;28;20185;-82
2023/04/23 06:31:17;;;;;;;0.10;0.10;;;14.80;99.90;;;;;;5071894;28;20241;-82
2023/04/23 06:33:42;;;;;;;0.10;0.10;;;14.90;99.90;;;;;;5063458;28;20209;-83
2023/04/23 06:36:10;;;;;;;0.10;0.10;;;14.90;99.90;;;;;;5065556;28;20213;-84
2023/04/23 06:38:37;;;;;;;0.10;0.10;;;15.10;99.90;;;;;;5062545;28;20181;-83
2023/04/23 06:41:03;;;;;;;0.10;0.10;;;15.00;99.90;;;;;;5064462;28;20333;-85
2023/04/23 06:43:29;;;;;;;0.10;0.10;;;15.00;99.90;;;;;;5060119;28;20215;-84
2023/04/23 06:45:55;;;;;;;0.10;0.10;;;15.30;99.90;;;;;;5055192;28;20204;-83
2023/04/23 06:48:21;;;;;;;0.10;0.10;;;15.30;99.90;;;;;;5062503;28;20199;-82
2023/04/23 06:50:47;;;;;;;0.10;0.10;;;15.10;99.90;;;;;;5063928;28;20176;-83
2023/04/23 06:53:13;;;;;;;0.10;0.10;;;15.10;99.90;;;;;;5079789;28;20197;-82
2023/04/23 06:55:38;;;;;;;0.10;0.10;;;15.10;99.90;;;;;;5066673;28;20196;-82
2023/04/23 06:58:06;;;;;;;0.10;0.10;;;15.20;99.90;;;;;;5061264;28;20275;-83
2023/04/23 07:00:31;;;;;;;0.10;0.10;;;15.20;99.90;;;;;;5056680;28;20180;-83
2023/04/23 07:02:57;;;;;;;0.10;0.10;;;15.50;99.90;;;;;;5058453;28;20245;-83
2023/04/23 07:05:23;;;;;;;0.10;0.10;;;15.60;99.90;;;;;;5059513;28;21797;-83
2023/04/23 07:07:48;;;;;;;0.10;0.10;;;15.90;99.90;;;;;;5058224;28;20201;-85
2023/04/23 07:10:14;;;;;;;0.10;0.10;;;15.90;99.90;;;;;;5059915;28;20185;-84
2023/04/23 07:12:45;;;;;;;0.10;0.10;;;16.30;99.90;;;;;;5065121;28;20210;-85
2023/04/23 07:15:11;;;;;;;0.10;0.10;;;16.60;99.90;;;;;;5064639;28;20190;-85
2023/04/23 07:17:36;;;;;;;0.10;0.10;;;16.80;99.90;;;;;;5067013;28;20204;-85
2023/04/23 07:20:07;;;;;;;0.10;0.10;;;16.80;99.90;;;;;;5063987;28;20188;-85
2023/04/23 07:22:33;;;;;;;0.10;0.10;;;17.10;99.90;;;;;;5068610;28;20200;-84
2023/04/23 07:25:00;;;;;;;0.10;0.10;;;17.20;99.90;;;;;;5055025;28;20181;-84
2023/04/23 07:27:25;;;;;;;0.10;0.10;;;17.00;99.90;;;;;;5060610;28;20287;-83
2023/04/23 07:29:51;;;;;;;0.10;0.10;;;16.80;99.90;;;;;;5056998;28;20181;-82
2023/04/23 07:32:17;;;;;;;0.10;0.10;;;16.50;99.90;;;;;;5057533;28;20713;-83
2023/04/23 07:34:43;;;;;;;0.10;0.10;;;16.20;99.90;;;;;;5060759;28;21185;-82
2023/04/23 07:37:08;;;;;;;0.10;0.10;;;16.10;99.90;;;;;;5052788;28;20261;-82
2023/04/23 07:39:34;;;;;;;0.10;0.10;;;16.20;99.90;;;;;;5052915;28;20196;-82
2023/04/23 07:42:00;;;;;;;0.10;0.10;;;15.90;99.90;;;;;;5054104;28;20427;-83
2023/04/23 07:44:26;;;;;;;0.10;0.10;;;16.10;99.90;;;;;;5059937;28;20234;-82
2023/04/23 07:46:52;;;;;;;0.10;0.10;;;16.50;99.90;;;;;;5054653;28;20200;-82
2023/04/23 07:49:17;;;;;;;0.10;0.10;;;16.40;99.90;;;;;;5054717;28;20184;-83
2023/04/23 07:51:43;;;;;;;0.20;0.20;;;16.30;99.90;;;;;;5056361;28;20208;-82
2023/04/23 07:54:09;;;;;;;0.10;0.10;;;16.40;99.90;;;;;;5057712;28;20195;-83
2023/04/23 07:56:35;;;;;;;0.10;0.10;;;16.30;99.90;;;;;;5060241;28;20211;-83
2023/04/23 07:59:01;;;;;;;0.10;0.10;;;16.10;99.90;;;;;;5059474;28;20189;-82
2023/04/23 08:01:27;;;;;;;0.00;0.00;;;16.00;99.90;;;;;;5064767;28;20181;-83
2023/04/23 08:03:54;;;;;;;0.10;0.10;;;16.10;99.90;;;;;;5063850;28;20287;-82
2023/04/23 08:06:22;;;;;;;0.53;0.53;;;16.10;99.90;;;;;;5060940;28;20228;-83
2023/04/23 08:08:48;;;;;;;0.10;0.10;;;16.10;99.90;;;;;;5061372;28;20706;-82
2023/04/23 08:11:13;;;;;;;0.10;0.10;;;16.20;99.90;;;;;;5065190;28;20246;-82
2023/04/23 08:13:39;;;;;;;0.10;0.10;;;16.40;99.90;;;;;;5065422;28;20196;-82
2023/04/23 08:16:05;;;;;;;0.10;0.10;;;16.60;99.90;;;;;;5058241;28;20211;-82
2023/04/23 08:18:30;;;;;;;0.10;0.10;;;16.80;99.90;;;;;;5048266;28;20190;-83
2023/04/23 08:20:56;;;;;;;0.10;0.10;;;16.90;99.90;;;;;;5049346;28;20193;-83
2023/04/23 08:23:21;;;;;;;0.10;0.10;;;17.20;99.90;;;;;;5043708;28;20223;-82
2023/04/23 08:25:47;;;;;;;0.10;0.10;;;17.30;99.90;;;;;;5044384;28;20274;-83
2023/04/23 08:28:13;;;;;;;0.10;0.10;;;17.40;99.90;;;;;;5050682;28;20299;-82
2023/04/23 08:30:38;;;;;;;0.10;0.10;;;17.30;99.90;;;;;;5055468;28;20181;-82
2023/04/23 08:33:04;;;;;;;0.10;0.10;;;17.50;99.90;;;;;;5057286;28;20719;-82
2023/04/23 08:35:29;;;;;;;0.10;0.10;;;17.50;99.90;;;;;;5062758;28;20224;-81
2023/04/23 08:37:55;;;;;;;0.10;0.10;;;17.30;99.90;;;;;;5059868;28;20715;-82
2023/04/23 08:40:21;;;;;;;0.10;0.10;;;17.30;99.90;;;;;;5060846;28;20185;-82
2023/04/23 08:42:56;;;;;;;0.10;0.10;;;17.20;99.90;;;;;;5061107;28;20224;-82
2023/04/23 08:45:23;;;;;;;0.10;0.10;;;17.20;99.90;;;;;;5061008;28;20295;-83
2023/04/23 08:47:49;;;;;;;0.10;0.10;;;17.30;99.90;;;;;;5060648;28;20221;-82
2023/04/23 08:50:17;;;;;;;0.10;0.10;;;17.60;99.90;;;;;;5063168;28;20933;-82
2023/04/23 08:52:51;;;;;;;0.10;0.10;;;17.80;99.90;;;;;;5064868;28;20280;-82
2023/04/23 08:55:18;;;;;;;0.10;0.10;;;17.70;99.90;;;;;;5063839;28;20184;-83
2023/04/23 08:57:45;;;;;;;0.10;0.10;;;17.90;99.90;;;;;;5061609;28;20204;-83
2023/04/23 09:00:13;;;;;;;0.10;0.10;;;18.00;99.90;;;;;;5077858;28;20196;-83
2023/04/23 09:02:40;;;;;;;0.10;0.10;;;18.20;99.90;;;;;;5060137;28;20703;-82
2023/04/23 09:05:06;;;;;;;0.10;0.10;;;18.10;99.90;;;;;;5061058;28;20296;-82
2023/04/23 09:07:32;;;;;;;0.10;0.10;;;18.00;99.90;;;;;;5059592;28;20686;-82
2023/04/23 09:09:58;;;;;;;0.10;0.10;;;18.00;99.90;;;;;;5060681;28;20239;-82
2023/04/23 09:12:24;;;;;;;0.10;0.10;;;18.10;99.90;;;;;;5054936;28;20658;-82
2023/04/23 09:14:50;;;;;;;0.10;0.10;;;18.30;99.90;;;;;;5056629;28;20224;-82
2023/04/23 09:17:17;;;;;;;0.10;0.10;;;18.20;99.90;;;;;;5064673;28;20301;-82
2023/04/23 09:19:45;;;;;;;0.10;0.10;;;18.10;99.90;;;;;;5061183;28;20277;-82
2023/04/23 09:22:11;;;;;;;0.10;0.10;;;17.80;99.90;;;;;;5053390;28;20208;-82
2023/04/23 09:24:36;;;;;;;0.10;0.10;;;17.70;99.90;;;;;;5062357;28;20204;-82
2023/04/23 09:27:02;;;;;;;0.10;0.10;;;17.90;99.90;;;;;;5057712;28;20196;-82
2023/04/23 09:29:29;;;;;;;0.10;0.10;;;18.10;99.90;;;;;;5060197;28;20552;-82
2023/04/23 09:32:07;;;;;;;0.10;0.10;;;18.40;99.90;;;;;;5062201;28;20201;-82
2023/04/23 09:34:36;;;;;;;0.10;0.10;;;18.40;99.90;;;;;;5063707;28;20180;-83
2023/04/23 09:37:04;;;;;;;0.10;0.10;;;18.80;99.90;;;;;;5060785;28;20209;-82
2023/04/23 09:39:32;;;;;;;0.10;0.10;;;18.70;99.90;;;;;;5059647;28;20271;-82
2023/04/23 09:42:03;;;;;;;0.10;0.10;;;19.10;99.90;;;;;;5061222;28;20216;-83
2023/04/23 09:44:31;;;;;;;0.10;0.10;;;19.20;99.90;;;;;;5060980;28;20188;-83
2023/04/23 09:47:13;;;;;;;0.10;0.10;;;18.60;99.90;;;;;;5062452;28;20251;-87
2023/04/23 09:49:49;;;;;;;0.10;0.10;;;18.80;99.90;;;;;;5054609;28;20176;-83
2023/04/23 09:52:15;;;;;;;0.10;0.10;;;18.80;99.90;;;;;;5061959;28;20240;-82
2023/04/23 09:54:42;;;;;;;0.10;0.10;;;18.90;99.90;;;;;;5056089;28;20182;-82
2023/04/23 09:57:08;;;;;;;0.10;0.10;;;18.90;99.90;;;;;;5064469;28;20291;-83
2023/04/23 09:59:37;;;;;;;0.10;0.10;;;19.10;99.90;;;;;;5057893;28;20304;-82
2023/04/23 10:02:05;;;;;;;0.10;0.10;;;19.40;99.90;;;;;;5063169;28;20366;-82
2023/04/23 10:04:31;;;;;;;0.10;0.10;;;20.00;99.90;;;;;;5063658;28;20185;-83
2023/04/23 10:06:58;;;;;;;0.10;0.10;;;20.50;99.90;;;;;;5062579;28;20234;-83
2023/04/23 10:09:25;;;;;;;0.10;0.10;;;20.80;99.90;;;;;;5054687;28;20215;-83
2023/04/23 10:11:52;;;;;;;0.10;0.10;;;20.60;99.90;;;;;;5060073;28;20182;-83
2023/04/23 10:14:20;;;;;;;0.10;0.10;;;20.40;99.90;;;;;;5060165;28;20193;-81
2023/04/23 10:16:49;;;;;;;0.10;0.10;;;20.10;99.90;;;;;;5059963;28;20364;-83
2023/04/23 10:19:18;;;;;;;0.10;0.10;;;19.90;99.90;;;;;;5061947;28;20189;-83
2023/04/23 10:21:48;;;;;;;0.10;0.10;;;19.80;99.90;;;;;;5061876;28;20208;-83
2023/04/23 10:24:16;;;;;;;0.10;0.10;;;20.00;99.90;;;;;;5055083;28;20180;-83
2023/04/23 10:26:43;;;;;;;0.10;0.10;;;19.90;99.90;;;;;;5058856;28;20304;-83
2023/04/23 10:29:13;;;;;;;0.10;0.10;;;19.80;99.90;;;;;;5059549;28;20188;-83
2023/04/23 10:31:41;;;;;;;0.10;0.10;;;19.80;99.90;;;;;;5062378;28;20685;-84
2023/04/23 10:34:09;;;;;;;0.10;0.10;;;19.80;99.90;;;;;;5063002;28;20185;-83
2023/04/23 10:36:36;;;;;;;0.10;0.10;;;19.90;99.90;;;;;;5061349;28;20209;-83
2023/04/23 10:39:06;;;;;;;0.10;0.10;;;19.90;99.90;;;;;;5058445;28;20185;-84
2023/04/23 10:41:38;;;;;;;0.10;0.10;;;19.90;99.90;;;;;;5055793;28;20183;-83
2023/04/23 10:44:10;;;;;;;0.10;0.10;;;20.20;99.90;;;;;;5060167;28;20189;-84
2023/04/23 10:46:36;;;;;;;0.10;0.10;;;20.20;99.90;;;;;;5060911;28;20231;-83
2023/04/23 10:49:15;;;;;;;0.10;0.10;;;20.40;99.90;;;;;;5055936;28;20188;-84
2023/04/23 10:51:47;;;;;;;0.10;0.10;;;20.50;99.90;;;;;;5059795;28;20179;-84
2023/04/23 10:54:14;;;;;;;0.10;0.10;;;20.70;99.90;;;;;;5062684;28;20187;-84
2023/04/23 10:56:41;;;;;;;0.10;0.10;;;20.60;99.90;;;;;;5061442;28;20200;-83
2023/04/23 10:59:20;;;;;;;0.10;0.10;;;20.30;99.90;;;;;;5059731;28;20227;-84
2023/04/23 11:01:48;;;;;;;0.10;0.10;;;20.00;99.90;;;;;;5063404;28;20283;-84
2023/04/23 11:04:28;;;;;;;0.10;0.10;;;19.80;99.90;;;;;;5060625;28;20553;-85
2023/04/23 11:06:57;;;;;;;0.10;0.10;;;20.00;99.90;;;;;;5059487;28;20222;-85
2023/04/23 11:09:29;;;;;;;0.10;0.10;;;20.10;99.90;;;;;;5058923;28;20193;-88
2023/04/23 11:11:56;;;;;;;0.10;0.10;;;20.20;99.90;;;;;;5058640;28;20188;-84
2023/04/23 11:14:33;;;;;;;0.10;0.10;;;20.00;99.90;;;;;;5057579;28;20394;-85
2023/04/23 11:16:58;;;;;;;0.10;0.10;;;20.00;99.90;;;;;;5061045;28;20547;-84
2023/04/23 11:19:24;;;;;;;0.10;0.10;;;20.00;99.90;;;;;;5057997;28;20200;-84
2023/04/23 11:22:07;;;;;;;0.10;0.10;;;20.10;99.90;;;;;;5053283;28;20208;-84
2023/04/23 11:24:40;;;;;;;0.10;0.10;;;19.90;99.90;;;;;;5061005;28;20614;-83
2023/04/23 11:27:08;;;;;;;0.10;0.10;;;20.10;99.90;;;;;;5063195;28;20197;-83
2023/04/23 11:29:35;;;;;;;0.10;0.10;;;20.20;99.90;;;;;;5064607;28;20177;-82
2023/04/23 11:32:01;;;;;;;0.10;0.10;;;20.00;99.90;;;;;;5060722;28;20181;-83
2023/04/23 11:34:27;;;;;;;0.10;0.10;;;19.60;99.90;;;;;;5059657;28;20189;-83
2023/04/23 11:36:53;;;;;;;0.10;0.10;;;19.40;99.90;;;;;;5065419;28;20205;-83
2023/04/23 11:39:25;;;;;;;0.10;0.10;;;19.40;99.90;;;;;;5066571;28;21080;-83
2023/04/23 11:41:51;;;;;;;0.10;0.10;;;19.30;99.90;;;;;;5058004;28;20295;-84
2023/04/23 11:44:18;;;;;;;0.10;0.10;;;19.20;99.90;;;;;;5064442;28;20729;-83
2023/04/23 11:46:46;;;;;;;0.10;0.10;;;19.40;99.90;;;;;;5062119;28;20203;-83
2023/04/23 11:49:12;;;;;;;0.10;0.10;;;19.70;99.90;;;;;;5058134;28;20184;-83
2023/04/23 11:51:42;;;;;;;0.10;0.10;;;19.50;99.90;;;;;;5059660;28;21194;-83
2023/04/23 11:54:08;;;;;;;0.10;0.10;;;20.00;99.90;;;;;;5060235;28;20551;-84
2023/04/23 11:56:34;;;;;;;0.10;0.10;;;19.80;99.90;;;;;;5060766;28;20206;-83
2023/04/23 11:59:04;;;;;;;0.10;0.10;;;19.60;99.90;;;;;;5059359;28;20267;-83
2023/04/23 12:01:50;;;;;;;0.10;0.10;;;19.50;99.90;;;;;;5066290;28;20264;-84
2023/04/23 12:04:24;;;;;;;0.10;0.10;;;19.70;99.90;;;;;;5060556;28;20177;-82
2023/04/23 12:06:51;;;;;;;0.10;0.10;;;19.60;99.90;;;;;;5069017;28;20785;-83
2023/04/23 12:09:18;;;;;;;0.10;0.10;;;19.70;99.90;;;;;;5075085;28;20177;-83
2023/04/23 12:11:44;;;;;;;0.10;0.10;;;19.50;99.90;;;;;;5071763;28;20442;-83
2023/04/23 12:14:13;;;;;;;0.10;0.10;;;19.40;99.90;;;;;;5061958;28;20567;-83
2023/04/23 12:16:41;;;;;;;0.10;0.10;;;19.70;99.90;;;;;;5064599;28;20258;-82
2023/04/23 12:19:17;;;;;;;0.10;0.10;;;20.30;99.90;;;;;;5062770;28;20189;-82
2023/04/23 12:21:54;;;;;;;0.10;0.10;;;20.30;99.90;;;;;;5065028;28;20201;-84
2023/04/23 12:24:21;;;;;;;0.10;0.10;;;20.30;99.90;;;;;;5062031;28;21210;-83
2023/04/23 12:26:57;;;;;;;0.10;0.10;;;21.10;99.90;;;;;;5060272;28;20626;-83
2023/04/23 12:29:24;;;;;;;0.10;0.10;;;20.90;99.90;;;;;;5063419;28;20177;-84
2023/04/23 12:31:51;;;;;;;0.10;0.10;;;20.70;99.90;;;;;;5064832;28;20276;-83
2023/04/23 12:34:18;;;;;;;0.10;0.10;;;20.40;99.90;;;;;;5064921;28;20188;-83
2023/04/23 12:36:47;;;;;;;0.10;0.10;;;20.20;99.90;;;;;;5062848;28;20211;-83
2023/04/23 12:39:32;;;;;;;0.10;0.10;;;20.10;99.90;;;;;;5062541;28;20192;-82
2023/04/23 12:42:05;;;;;;;0.10;0.10;;;19.70;99.90;;;;;;5061837;28;20205;-84
2023/04/23 12:44:35;;;;;;;0.10;0.10;;;19.80;99.90;;;;;;5057122;28;20204;-83
2023/04/23 12:47:06;;;;;;;0.10;0.10;;;20.00;99.90;;;;;;5063307;28;20196;-83